sensor_id;sensor_type;location;lat;lon;timestamp;P1;durP1;ratioP1;P2;durP2;ratioP2
10269;SDS011;70826;50.930;5.334;2024-01-11T00:02:18;29.98;;;27.55;;
10269;SDS011;70826;50.930;5.334;2024-01-11T00:04:44;29.13;;;26.77;;
10269;SDS011;70826;50.930;5.334;2024-01-11T00:07:10;31.92;;;29.30;;
10269;SDS011;70826;50.930;5.334;2024-01-11T00:09:39;29.50;;;27.00;;
10269;SDS011;70826;50.930;5.334;2024-01-11T00:12:06;30.52;;;27.63;;
10269;SDS011;70826;50.930;5.334;2024-01-11T00:14:32;30.77;;;28.27;;
10269;SDS011;70826;50.930;5.334;2024-01-11T00:16:58;31.10;;;28.33;;
10269;SDS011;70826;50.930;5.334;2024-01-11T00:19:23;30.42;;;27.83;;
10269;SDS011;70826;50.930;5.334;2024-01-11T00:21:49;30.67;;;27.98;;
10269;SDS011;70826;50.930;5.334;2024-01-11T00:24:15;29.98;;;27.35;;
10269;SDS011;70826;50.930;5.334;2024-01-11T00:26:40;30.23;;;27.42;;
10269;SDS011;70826;50.930;5.334;2024-01-11T00:29:06;31.15;;;28.45;;
10269;SDS011;70826;50.930;5.334;2024-01-11T00:31:32;29.38;;;26.67;;
10269;SDS011;70826;50.930;5.334;2024-01-11T00:34:01;30.55;;;27.73;;
10269;SDS011;70826;50.930;5.334;2024-01-11T00:36:26;30.27;;;27.65;;
10269;SDS011;70826;50.930;5.334;2024-01-11T00:38:53;30.75;;;28.10;;
10269;SDS011;70826;50.930;5.334;2024-01-11T00:41:19;29.10;;;26.70;;
10269;SDS011;70826;50.930;5.334;2024-01-11T00:43:45;30.52;;;27.85;;
10269;SDS011;70826;50.930;5.334;2024-01-11T00:46:11;30.85;;;28.27;;
10269;SDS011;70826;50.930;5.334;2024-01-11T00:48:37;30.33;;;27.77;;
10269;SDS011;70826;50.930;5.334;2024-01-11T00:51:06;30.63;;;27.88;;
10269;SDS011;70826;50.930;5.334;2024-01-11T00:53:32;30.45;;;27.75;;
10269;SDS011;70826;50.930;5.334;2024-01-11T00:55:58;30.85;;;28.20;;
10269;SDS011;70826;50.930;5.334;2024-01-11T00:58:24;30.45;;;27.90;;
10269;SDS011;70826;50.930;5.334;2024-01-11T01:00:53;29.05;;;26.58;;
10269;SDS011;70826;50.930;5.334;2024-01-11T01:03:22;29.05;;;26.48;;
10269;SDS011;70826;50.930;5.334;2024-01-11T01:05:48;30.25;;;27.83;;
10269;SDS011;70826;50.930;5.334;2024-01-11T01:08:14;30.80;;;28.10;;
10269;SDS011;70826;50.930;5.334;2024-01-11T01:10:40;30.95;;;28.33;;
10269;SDS011;70826;50.930;5.334;2024-01-11T01:13:05;29.92;;;27.45;;
10269;SDS011;70826;50.930;5.334;2024-01-11T01:15:31;30.25;;;27.65;;
10269;SDS011;70826;50.930;5.334;2024-01-11T01:17:57;28.83;;;26.27;;
10269;SDS011;70826;50.930;5.334;2024-01-11T01:20:22;29.73;;;27.20;;
10269;SDS011;70826;50.930;5.334;2024-01-11T01:22:49;29.98;;;27.55;;
10269;SDS011;70826;50.930;5.334;2024-01-11T01:25:15;29.05;;;26.60;;
10269;SDS011;70826;50.930;5.334;2024-01-11T01:27:40;30.45;;;27.90;;
10269;SDS011;70826;50.930;5.334;2024-01-11T01:30:06;28.73;;;26.42;;
10269;SDS011;70826;50.930;5.334;2024-01-11T01:32:33;29.25;;;26.65;;
10269;SDS011;70826;50.930;5.334;2024-01-11T01:34:59;29.85;;;27.30;;
10269;SDS011;70826;50.930;5.334;2024-01-11T01:37:25;27.98;;;25.52;;
10269;SDS011;70826;50.930;5.334;2024-01-11T01:39:51;28.17;;;25.75;;
10269;SDS011;70826;50.930;5.334;2024-01-11T01:42:16;29.17;;;26.70;;
10269;SDS011;70826;50.930;5.334;2024-01-11T01:44:42;26.55;;;24.15;;
10269;SDS011;70826;50.930;5.334;2024-01-11T01:47:08;25.95;;;23.70;;
10269;SDS011;70826;50.930;5.334;2024-01-11T01:49:38;28.13;;;25.70;;
10269;SDS011;70826;50.930;5.334;2024-01-11T01:52:04;27.65;;;25.33;;
10269;SDS011;70826;50.930;5.334;2024-01-11T01:54:32;27.88;;;25.17;;
10269;SDS011;70826;50.930;5.334;2024-01-11T01:56:58;27.52;;;24.83;;
10269;SDS011;70826;50.930;5.334;2024-01-11T01:59:25;28.42;;;25.95;;
10269;SDS011;70826;50.930;5.334;2024-01-11T02:01:52;26.58;;;24.38;;
10269;SDS011;70826;50.930;5.334;2024-01-11T02:04:18;29.85;;;27.35;;
10269;SDS011;70826;50.930;5.334;2024-01-11T02:06:44;28.50;;;25.77;;
10269;SDS011;70826;50.930;5.334;2024-01-11T02:09:11;27.30;;;25.00;;
10269;SDS011;70826;50.930;5.334;2024-01-11T02:11:38;28.23;;;25.83;;
10269;SDS011;70826;50.930;5.334;2024-01-11T02:14:06;28.90;;;26.30;;
10269;SDS011;70826;50.930;5.334;2024-01-11T02:16:32;27.80;;;25.40;;
10269;SDS011;70826;50.930;5.334;2024-01-11T02:18:58;28.45;;;25.98;;
10269;SDS011;70826;50.930;5.334;2024-01-11T02:21:24;27.90;;;25.40;;
10269;SDS011;70826;50.930;5.334;2024-01-11T02:23:57;29.05;;;26.55;;
10269;SDS011;70826;50.930;5.334;2024-01-11T02:26:28;27.08;;;24.67;;
10269;SDS011;70826;50.930;5.334;2024-01-11T02:28:53;27.17;;;24.77;;
10269;SDS011;70826;50.930;5.334;2024-01-11T02:31:19;28.17;;;25.67;;
10269;SDS011;70826;50.930;5.334;2024-01-11T02:33:50;26.98;;;24.55;;
10269;SDS011;70826;50.930;5.334;2024-01-11T02:36:20;27.27;;;24.77;;
10269;SDS011;70826;50.930;5.334;2024-01-11T02:38:46;25.58;;;23.42;;
10269;SDS011;70826;50.930;5.334;2024-01-11T02:41:14;26.60;;;24.20;;
10269;SDS011;70826;50.930;5.334;2024-01-11T02:43:46;26.65;;;24.25;;
10269;SDS011;70826;50.930;5.334;2024-01-11T02:46:12;27.33;;;24.83;;
10269;SDS011;70826;50.930;5.334;2024-01-11T02:48:39;27.70;;;25.33;;
10269;SDS011;70826;50.930;5.334;2024-01-11T02:51:05;28.63;;;26.33;;
10269;SDS011;70826;50.930;5.334;2024-01-11T02:53:30;28.98;;;26.50;;
10269;SDS011;70826;50.930;5.334;2024-01-11T02:55:59;27.85;;;25.48;;
10269;SDS011;70826;50.930;5.334;2024-01-11T02:58:28;25.60;;;23.50;;
10269;SDS011;70826;50.930;5.334;2024-01-11T03:00:53;27.58;;;25.17;;
10269;SDS011;70826;50.930;5.334;2024-01-11T03:03:19;27.58;;;25.27;;
10269;SDS011;70826;50.930;5.334;2024-01-11T03:05:44;27.42;;;25.08;;
10269;SDS011;70826;50.930;5.334;2024-01-11T03:08:10;28.15;;;25.55;;
10269;SDS011;70826;50.930;5.334;2024-01-11T03:10:37;27.15;;;24.83;;
10269;SDS011;70826;50.930;5.334;2024-01-11T03:13:03;27.80;;;25.33;;
10269;SDS011;70826;50.930;5.334;2024-01-11T03:15:30;28.02;;;25.58;;
10269;SDS011;70826;50.930;5.334;2024-01-11T03:17:55;25.85;;;23.55;;
10269;SDS011;70826;50.930;5.334;2024-01-11T03:20:21;28.02;;;25.70;;
10269;SDS011;70826;50.930;5.334;2024-01-11T03:22:49;28.00;;;25.48;;
10269;SDS011;70826;50.930;5.334;2024-01-11T03:25:16;27.00;;;24.70;;
10269;SDS011;70826;50.930;5.334;2024-01-11T03:27:42;27.60;;;25.20;;
10269;SDS011;70826;50.930;5.334;2024-01-11T03:30:08;29.90;;;27.10;;
10269;SDS011;70826;50.930;5.334;2024-01-11T03:32:33;26.98;;;24.58;;
10269;SDS011;70826;50.930;5.334;2024-01-11T03:34:59;26.42;;;23.98;;
10269;SDS011;70826;50.930;5.334;2024-01-11T03:37:25;27.30;;;24.90;;
10269;SDS011;70826;50.930;5.334;2024-01-11T03:39:50;26.55;;;24.17;;
10269;SDS011;70826;50.930;5.334;2024-01-11T03:42:16;27.77;;;25.33;;
10269;SDS011;70826;50.930;5.334;2024-01-11T03:44:42;26.38;;;24.08;;
10269;SDS011;70826;50.930;5.334;2024-01-11T03:47:08;27.95;;;25.40;;
10269;SDS011;70826;50.930;5.334;2024-01-11T03:49:33;27.08;;;24.73;;
10269;SDS011;70826;50.930;5.334;2024-01-11T03:51:59;26.88;;;24.65;;
10269;SDS011;70826;50.930;5.334;2024-01-11T03:54:26;26.75;;;24.48;;
10269;SDS011;70826;50.930;5.334;2024-01-11T03:56:52;26.42;;;24.13;;
10269;SDS011;70826;50.930;5.334;2024-01-11T03:59:19;27.48;;;25.00;;
10269;SDS011;70826;50.930;5.334;2024-01-11T04:01:44;27.95;;;25.42;;
10269;SDS011;70826;50.930;5.334;2024-01-11T04:04:13;26.08;;;23.65;;
10269;SDS011;70826;50.930;5.334;2024-01-11T04:06:38;28.83;;;26.15;;
10269;SDS011;70826;50.930;5.334;2024-01-11T04:09:07;26.88;;;24.48;;
10269;SDS011;70826;50.930;5.334;2024-01-11T04:11:32;24.90;;;22.70;;
10269;SDS011;70826;50.930;5.334;2024-01-11T04:13:58;26.65;;;24.25;;
10269;SDS011;70826;50.930;5.334;2024-01-11T04:16:24;26.00;;;23.60;;
10269;SDS011;70826;50.930;5.334;2024-01-11T04:18:49;26.50;;;24.10;;
10269;SDS011;70826;50.930;5.334;2024-01-11T04:21:22;27.88;;;25.38;;
10269;SDS011;70826;50.930;5.334;2024-01-11T04:23:48;24.65;;;22.35;;
10269;SDS011;70826;50.930;5.334;2024-01-11T04:26:13;26.63;;;24.23;;
10269;SDS011;70826;50.930;5.334;2024-01-11T04:28:40;26.10;;;23.67;;
10269;SDS011;70826;50.930;5.334;2024-01-11T04:31:07;26.00;;;23.60;;
10269;SDS011;70826;50.930;5.334;2024-01-11T04:33:35;25.60;;;23.20;;
10269;SDS011;70826;50.930;5.334;2024-01-11T04:36:04;25.42;;;23.08;;
10269;SDS011;70826;50.930;5.334;2024-01-11T04:38:35;24.80;;;22.50;;
10269;SDS011;70826;50.930;5.334;2024-01-11T04:41:02;25.77;;;23.48;;
10269;SDS011;70826;50.930;5.334;2024-01-11T04:43:35;23.92;;;21.63;;
10269;SDS011;70826;50.930;5.334;2024-01-11T04:46:12;26.10;;;23.70;;
10269;SDS011;70826;50.930;5.334;2024-01-11T04:48:41;25.77;;;23.30;;
10269;SDS011;70826;50.930;5.334;2024-01-11T04:51:07;24.52;;;22.27;;
10269;SDS011;70826;50.930;5.334;2024-01-11T04:53:38;25.20;;;22.85;;
10269;SDS011;70826;50.930;5.334;2024-01-11T04:56:07;24.48;;;22.08;;
10269;SDS011;70826;50.930;5.334;2024-01-11T04:58:39;25.15;;;22.83;;
10269;SDS011;70826;50.930;5.334;2024-01-11T05:01:15;25.70;;;23.27;;
10269;SDS011;70826;50.930;5.334;2024-01-11T05:03:45;24.27;;;21.95;;
10269;SDS011;70826;50.930;5.334;2024-01-11T05:08:44;26.52;;;24.05;;
10269;SDS011;70826;50.930;5.334;2024-01-11T05:11:21;25.95;;;23.52;;
10269;SDS011;70826;50.930;5.334;2024-01-11T05:13:53;25.42;;;23.15;;
10269;SDS011;70826;50.930;5.334;2024-01-11T05:16:23;25.55;;;23.15;;
10269;SDS011;70826;50.930;5.334;2024-01-11T05:18:50;24.58;;;22.23;;
10269;SDS011;70826;50.930;5.334;2024-01-11T05:21:17;24.75;;;22.17;;
10269;SDS011;70826;50.930;5.334;2024-01-11T05:23:45;25.73;;;23.27;;
10269;SDS011;70826;50.930;5.334;2024-01-11T05:26:12;26.75;;;24.15;;
10269;SDS011;70826;50.930;5.334;2024-01-11T05:28:38;25.23;;;22.90;;
10269;SDS011;70826;50.930;5.334;2024-01-11T05:31:07;26.60;;;23.98;;
10269;SDS011;70826;50.930;5.334;2024-01-11T05:33:39;26.52;;;24.02;;
10269;SDS011;70826;50.930;5.334;2024-01-11T05:36:06;25.30;;;22.98;;
10269;SDS011;70826;50.930;5.334;2024-01-11T05:38:35;24.95;;;22.33;;
10269;SDS011;70826;50.930;5.334;2024-01-11T05:41:00;26.38;;;23.67;;
10269;SDS011;70826;50.930;5.334;2024-01-11T05:43:27;27.85;;;25.25;;
10269;SDS011;70826;50.930;5.334;2024-01-11T05:45:52;25.92;;;23.42;;
10269;SDS011;70826;50.930;5.334;2024-01-11T05:48:18;27.15;;;24.38;;
10269;SDS011;70826;50.930;5.334;2024-01-11T05:50:46;26.25;;;23.60;;
10269;SDS011;70826;50.930;5.334;2024-01-11T05:53:12;24.52;;;22.33;;
10269;SDS011;70826;50.930;5.334;2024-01-11T05:55:40;26.38;;;23.80;;
10269;SDS011;70826;50.930;5.334;2024-01-11T05:58:08;26.98;;;24.33;;
10269;SDS011;70826;50.930;5.334;2024-01-11T06:00:39;26.65;;;24.15;;
10269;SDS011;70826;50.930;5.334;2024-01-11T06:03:05;25.75;;;23.33;;
10269;SDS011;70826;50.930;5.334;2024-01-11T06:05:35;26.55;;;24.05;;
10269;SDS011;70826;50.930;5.334;2024-01-11T06:08:03;26.70;;;24.17;;
10269;SDS011;70826;50.930;5.334;2024-01-11T06:10:36;26.40;;;23.90;;
10269;SDS011;70826;50.930;5.334;2024-01-11T06:13:09;26.58;;;24.02;;
10269;SDS011;70826;50.930;5.334;2024-01-11T06:15:36;26.60;;;24.05;;
10269;SDS011;70826;50.930;5.334;2024-01-11T06:18:02;27.60;;;24.90;;
10269;SDS011;70826;50.930;5.334;2024-01-11T06:20:32;26.20;;;23.85;;
10269;SDS011;70826;50.930;5.334;2024-01-11T06:23:00;27.13;;;24.50;;
10269;SDS011;70826;50.930;5.334;2024-01-11T06:25:28;26.52;;;24.02;;
10269;SDS011;70826;50.930;5.334;2024-01-11T06:27:56;24.38;;;22.08;;
10269;SDS011;70826;50.930;5.334;2024-01-11T06:30:22;24.75;;;22.45;;
10269;SDS011;70826;50.930;5.334;2024-01-11T06:32:47;25.50;;;23.00;;
10269;SDS011;70826;50.930;5.334;2024-01-11T06:35:17;26.45;;;23.77;;
10269;SDS011;70826;50.930;5.334;2024-01-11T06:37:45;27.75;;;25.17;;
10269;SDS011;70826;50.930;5.334;2024-01-11T06:40:14;26.77;;;23.95;;
10269;SDS011;70826;50.930;5.334;2024-01-11T06:42:44;25.10;;;22.40;;
10269;SDS011;70826;50.930;5.334;2024-01-11T06:45:12;25.05;;;22.58;;
10269;SDS011;70826;50.930;5.334;2024-01-11T06:47:38;25.52;;;23.13;;
10269;SDS011;70826;50.930;5.334;2024-01-11T06:50:03;25.70;;;23.23;;
10269;SDS011;70826;50.930;5.334;2024-01-11T06:52:29;26.42;;;23.77;;
10269;SDS011;70826;50.930;5.334;2024-01-11T06:54:55;25.00;;;22.67;;
10269;SDS011;70826;50.930;5.334;2024-01-11T06:57:23;25.60;;;23.00;;
10269;SDS011;70826;50.930;5.334;2024-01-11T06:59:49;23.42;;;21.02;;
10269;SDS011;70826;50.930;5.334;2024-01-11T07:02:15;23.55;;;21.25;;
10269;SDS011;70826;50.930;5.334;2024-01-11T07:04:44;25.80;;;23.23;;
10269;SDS011;70826;50.930;5.334;2024-01-11T07:07:12;25.40;;;23.00;;
10269;SDS011;70826;50.930;5.334;2024-01-11T07:09:38;26.25;;;23.88;;
10269;SDS011;70826;50.930;5.334;2024-01-11T07:12:06;26.65;;;23.95;;
10269;SDS011;70826;50.930;5.334;2024-01-11T07:14:34;25.65;;;23.10;;
10269;SDS011;70826;50.930;5.334;2024-01-11T07:17:05;25.58;;;23.05;;
10269;SDS011;70826;50.930;5.334;2024-01-11T07:19:30;26.30;;;23.70;;
10269;SDS011;70826;50.930;5.334;2024-01-11T07:22:01;25.13;;;22.65;;
10269;SDS011;70826;50.930;5.334;2024-01-11T07:24:27;26.80;;;24.27;;
10269;SDS011;70826;50.930;5.334;2024-01-11T07:27:02;26.85;;;24.25;;
10269;SDS011;70826;50.930;5.334;2024-01-11T07:29:31;27.20;;;24.45;;
10269;SDS011;70826;50.930;5.334;2024-01-11T07:31:57;25.88;;;23.45;;
10269;SDS011;70826;50.930;5.334;2024-01-11T07:34:26;26.42;;;23.73;;
10269;SDS011;70826;50.930;5.334;2024-01-11T07:36:52;26.73;;;24.02;;
10269;SDS011;70826;50.930;5.334;2024-01-11T07:39:18;26.25;;;23.70;;
10269;SDS011;70826;50.930;5.334;2024-01-11T07:41:49;25.77;;;23.27;;
10269;SDS011;70826;50.930;5.334;2024-01-11T07:44:17;25.63;;;23.05;;
10269;SDS011;70826;50.930;5.334;2024-01-11T07:46:43;25.02;;;22.58;;
10269;SDS011;70826;50.930;5.334;2024-01-11T07:49:11;25.70;;;23.25;;
10269;SDS011;70826;50.930;5.334;2024-01-11T07:51:40;26.00;;;23.23;;
10269;SDS011;70826;50.930;5.334;2024-01-11T07:54:06;26.88;;;24.27;;
10269;SDS011;70826;50.930;5.334;2024-01-11T07:56:33;25.65;;;23.25;;
10269;SDS011;70826;50.930;5.334;2024-01-11T07:59:02;25.38;;;22.88;;
10269;SDS011;70826;50.930;5.334;2024-01-11T08:01:28;24.83;;;22.23;;
10269;SDS011;70826;50.930;5.334;2024-01-11T08:03:53;24.80;;;22.30;;
10269;SDS011;70826;50.930;5.334;2024-01-11T08:06:26;23.92;;;21.50;;
10269;SDS011;70826;50.930;5.334;2024-01-11T08:08:54;24.38;;;21.98;;
10269;SDS011;70826;50.930;5.334;2024-01-11T08:11:22;26.23;;;23.52;;
10269;SDS011;70826;50.930;5.334;2024-01-11T08:13:50;26.75;;;24.33;;
10269;SDS011;70826;50.930;5.334;2024-01-11T08:16:18;24.88;;;22.33;;
10269;SDS011;70826;50.930;5.334;2024-01-11T08:18:46;25.50;;;23.00;;
10269;SDS011;70826;50.930;5.334;2024-01-11T08:21:16;26.10;;;23.55;;
10269;SDS011;70826;50.930;5.334;2024-01-11T08:23:42;25.33;;;22.73;;
10269;SDS011;70826;50.930;5.334;2024-01-11T08:26:14;25.30;;;22.83;;
10269;SDS011;70826;50.930;5.334;2024-01-11T08:28:42;25.48;;;22.92;;
10269;SDS011;70826;50.930;5.334;2024-01-11T08:31:08;27.05;;;24.15;;
10269;SDS011;70826;50.930;5.334;2024-01-11T08:33:34;26.67;;;23.52;;
10269;SDS011;70826;50.930;5.334;2024-01-11T08:36:01;29.20;;;26.27;;
10269;SDS011;70826;50.930;5.334;2024-01-11T08:38:28;27.85;;;25.05;;
10269;SDS011;70826;50.930;5.334;2024-01-11T08:40:54;28.85;;;25.88;;
10269;SDS011;70826;50.930;5.334;2024-01-11T08:43:20;30.88;;;27.48;;
10269;SDS011;70826;50.930;5.334;2024-01-11T08:45:46;28.58;;;25.80;;
10269;SDS011;70826;50.930;5.334;2024-01-11T08:48:17;27.67;;;24.98;;
10269;SDS011;70826;50.930;5.334;2024-01-11T08:50:44;29.25;;;26.10;;
10269;SDS011;70826;50.930;5.334;2024-01-11T08:53:17;27.30;;;24.70;;
10269;SDS011;70826;50.930;5.334;2024-01-11T08:55:43;25.30;;;22.75;;
10269;SDS011;70826;50.930;5.334;2024-01-11T08:58:13;25.25;;;22.52;;
10269;SDS011;70826;50.930;5.334;2024-01-11T09:00:41;23.92;;;21.35;;
10269;SDS011;70826;50.930;5.334;2024-01-11T09:03:07;25.77;;;23.08;;
10269;SDS011;70826;50.930;5.334;2024-01-11T09:05:37;26.70;;;23.98;;
10269;SDS011;70826;50.930;5.334;2024-01-11T09:08:05;25.25;;;22.65;;
10269;SDS011;70826;50.930;5.334;2024-01-11T09:10:34;27.17;;;24.52;;
10269;SDS011;70826;50.930;5.334;2024-01-11T09:12:59;26.92;;;24.15;;
10269;SDS011;70826;50.930;5.334;2024-01-11T09:15:30;27.98;;;25.20;;
10269;SDS011;70826;50.930;5.334;2024-01-11T09:17:58;26.35;;;23.65;;
10269;SDS011;70826;50.930;5.334;2024-01-11T09:20:25;26.35;;;23.75;;
10269;SDS011;70826;50.930;5.334;2024-01-11T09:22:53;27.58;;;24.55;;
10269;SDS011;70826;50.930;5.334;2024-01-11T09:25:21;26.13;;;23.60;;
10269;SDS011;70826;50.930;5.334;2024-01-11T09:27:48;26.60;;;23.90;;
10269;SDS011;70826;50.930;5.334;2024-01-11T09:30:14;26.60;;;23.70;;
10269;SDS011;70826;50.930;5.334;2024-01-11T09:32:44;25.52;;;22.95;;
10269;SDS011;70826;50.930;5.334;2024-01-11T09:35:12;26.65;;;23.85;;
10269;SDS011;70826;50.930;5.334;2024-01-11T09:37:38;26.58;;;23.70;;
10269;SDS011;70826;50.930;5.334;2024-01-11T09:40:10;26.08;;;23.30;;
10269;SDS011;70826;50.930;5.334;2024-01-11T09:42:40;25.58;;;22.80;;
10269;SDS011;70826;50.930;5.334;2024-01-11T09:45:12;28.17;;;25.25;;
10269;SDS011;70826;50.930;5.334;2024-01-11T09:47:46;25.85;;;23.33;;
10269;SDS011;70826;50.930;5.334;2024-01-11T09:50:16;26.83;;;24.05;;
10269;SDS011;70826;50.930;5.334;2024-01-11T09:52:46;26.88;;;24.13;;
10269;SDS011;70826;50.930;5.334;2024-01-11T09:55:20;26.83;;;23.60;;
10269;SDS011;70826;50.930;5.334;2024-01-11T09:57:52;29.42;;;23.77;;
10269;SDS011;70826;50.930;5.334;2024-01-11T10:00:22;27.55;;;24.33;;
10269;SDS011;70826;50.930;5.334;2024-01-11T10:02:53;27.58;;;22.42;;
10269;SDS011;70826;50.930;5.334;2024-01-11T10:05:21;26.27;;;22.08;;
10269;SDS011;70826;50.930;5.334;2024-01-11T10:07:50;26.50;;;21.33;;
10269;SDS011;70826;50.930;5.334;2024-01-11T10:10:18;24.73;;;19.73;;
10269;SDS011;70826;50.930;5.334;2024-01-11T10:12:44;24.33;;;19.40;;
10269;SDS011;70826;50.930;5.334;2024-01-11T10:15:14;24.80;;;20.23;;
10269;SDS011;70826;50.930;5.334;2024-01-11T10:17:43;26.13;;;20.33;;
10269;SDS011;70826;50.930;5.334;2024-01-11T10:20:14;23.02;;;20.42;;
10269;SDS011;70826;50.930;5.334;2024-01-11T10:22:48;24.92;;;20.98;;
10269;SDS011;70826;50.930;5.334;2024-01-11T10:25:15;23.23;;;20.83;;
10269;SDS011;70826;50.930;5.334;2024-01-11T10:27:45;26.67;;;21.33;;
10269;SDS011;70826;50.930;5.334;2024-01-11T10:30:12;25.40;;;21.60;;
10269;SDS011;70826;50.930;5.334;2024-01-11T10:32:41;25.30;;;22.73;;
10269;SDS011;70826;50.930;5.334;2024-01-11T10:35:10;27.90;;;24.20;;
10269;SDS011;70826;50.930;5.334;2024-01-11T10:37:39;27.65;;;24.83;;
10269;SDS011;70826;50.930;5.334;2024-01-11T10:40:08;31.55;;;27.95;;
10269;SDS011;70826;50.930;5.334;2024-01-11T10:42:43;31.15;;;28.15;;
10269;SDS011;70826;50.930;5.334;2024-01-11T10:45:19;32.63;;;28.85;;
10269;SDS011;70826;50.930;5.334;2024-01-11T10:47:55;32.95;;;29.70;;
10269;SDS011;70826;50.930;5.334;2024-01-11T10:50:25;34.58;;;31.23;;
10269;SDS011;70826;50.930;5.334;2024-01-11T10:55:59;37.45;;;34.00;;
10269;SDS011;70826;50.930;5.334;2024-01-11T10:58:28;39.40;;;35.60;;
10269;SDS011;70826;50.930;5.334;2024-01-11T11:00:57;39.08;;;35.30;;
10269;SDS011;70826;50.930;5.334;2024-01-11T11:03:29;39.20;;;35.30;;
10269;SDS011;70826;50.930;5.334;2024-01-11T11:06:00;38.08;;;34.63;;
10269;SDS011;70826;50.930;5.334;2024-01-11T11:08:31;37.78;;;34.40;;
10269;SDS011;70826;50.930;5.334;2024-01-11T11:10:59;38.00;;;34.50;;
10269;SDS011;70826;50.930;5.334;2024-01-11T11:13:34;37.97;;;34.58;;
10269;SDS011;70826;50.930;5.334;2024-01-11T11:16:02;38.03;;;34.55;;
10269;SDS011;70826;50.930;5.334;2024-01-11T11:18:33;37.22;;;33.83;;
10269;SDS011;70826;50.930;5.334;2024-01-11T11:21:14;38.63;;;35.17;;
10269;SDS011;70826;50.930;5.334;2024-01-11T11:23:45;36.65;;;33.55;;
10269;SDS011;70826;50.930;5.334;2024-01-11T11:26:16;36.20;;;33.10;;
10269;SDS011;70826;50.930;5.334;2024-01-11T11:28:42;36.47;;;32.88;;
10269;SDS011;70826;50.930;5.334;2024-01-11T11:31:13;37.78;;;34.30;;
10269;SDS011;70826;50.930;5.334;2024-01-11T11:33:44;36.72;;;33.22;;
10269;SDS011;70826;50.930;5.334;2024-01-11T11:36:12;37.03;;;33.70;;
10269;SDS011;70826;50.930;5.334;2024-01-11T11:38:41;35.10;;;31.98;;
10269;SDS011;70826;50.930;5.334;2024-01-11T11:41:06;36.78;;;33.58;;
10269;SDS011;70826;50.930;5.334;2024-01-11T11:43:35;35.45;;;32.30;;
10269;SDS011;70826;50.930;5.334;2024-01-11T11:46:07;34.95;;;31.60;;
10269;SDS011;70826;50.930;5.334;2024-01-11T11:53:40;35.67;;;32.47;;
10269;SDS011;70826;50.930;5.334;2024-01-11T11:56:07;35.10;;;32.17;;
10269;SDS011;70826;50.930;5.334;2024-01-11T11:58:41;34.38;;;31.27;;
10269;SDS011;70826;50.930;5.334;2024-01-11T12:01:10;33.50;;;30.55;;
10269;SDS011;70826;50.930;5.334;2024-01-11T12:03:37;34.20;;;31.20;;
10269;SDS011;70826;50.930;5.334;2024-01-11T12:06:11;34.53;;;31.42;;
10269;SDS011;70826;50.930;5.334;2024-01-11T12:08:43;33.45;;;30.55;;
10269;SDS011;70826;50.930;5.334;2024-01-11T12:11:09;33.40;;;30.55;;
10269;SDS011;70826;50.930;5.334;2024-01-11T12:13:38;32.17;;;29.38;;
10269;SDS011;70826;50.930;5.334;2024-01-11T12:16:05;32.75;;;29.77;;
10269;SDS011;70826;50.930;5.334;2024-01-11T12:18:31;32.95;;;29.85;;
10269;SDS011;70826;50.930;5.334;2024-01-11T12:20:57;32.50;;;29.63;;
10269;SDS011;70826;50.930;5.334;2024-01-11T12:23:25;34.17;;;31.25;;
10269;SDS011;70826;50.930;5.334;2024-01-11T12:25:56;31.15;;;28.40;;
10269;SDS011;70826;50.930;5.334;2024-01-11T12:28:23;31.10;;;28.40;;
10269;SDS011;70826;50.930;5.334;2024-01-11T12:30:53;29.23;;;26.58;;
10269;SDS011;70826;50.930;5.334;2024-01-11T12:33:19;31.23;;;28.55;;
10269;SDS011;70826;50.930;5.334;2024-01-11T12:35:45;31.17;;;28.48;;
10269;SDS011;70826;50.930;5.334;2024-01-11T12:38:16;30.23;;;27.52;;
10269;SDS011;70826;50.930;5.334;2024-01-11T12:40:42;31.95;;;29.17;;
10269;SDS011;70826;50.930;5.334;2024-01-11T12:43:13;32.03;;;29.30;;
10269;SDS011;70826;50.930;5.334;2024-01-11T12:45:41;30.27;;;27.58;;
10269;SDS011;70826;50.930;5.334;2024-01-11T12:48:09;29.73;;;27.02;;
10269;SDS011;70826;50.930;5.334;2024-01-11T12:50:35;29.15;;;26.52;;
10269;SDS011;70826;50.930;5.334;2024-01-11T12:55:43;27.65;;;25.25;;
10269;SDS011;70826;50.930;5.334;2024-01-11T12:58:13;28.75;;;25.98;;
10269;SDS011;70826;50.930;5.334;2024-01-11T13:00:43;28.30;;;25.90;;
10269;SDS011;70826;50.930;5.334;2024-01-11T13:03:11;30.10;;;27.50;;
10269;SDS011;70826;50.930;5.334;2024-01-11T13:05:37;27.45;;;25.02;;
10269;SDS011;70826;50.930;5.334;2024-01-11T13:08:09;28.80;;;26.20;;
10269;SDS011;70826;50.930;5.334;2024-01-11T13:10:42;27.30;;;24.80;;
10269;SDS011;70826;50.930;5.334;2024-01-11T13:13:08;28.83;;;25.98;;
10269;SDS011;70826;50.930;5.334;2024-01-11T13:15:33;25.35;;;22.92;;
10269;SDS011;70826;50.930;5.334;2024-01-11T13:18:02;24.17;;;21.92;;
10269;SDS011;70826;50.930;5.334;2024-01-11T13:20:28;22.90;;;20.65;;
10269;SDS011;70826;50.930;5.334;2024-01-11T13:23:15;24.10;;;21.70;;
10269;SDS011;70826;50.930;5.334;2024-01-11T13:25:42;22.70;;;20.55;;
10269;SDS011;70826;50.930;5.334;2024-01-11T13:28:09;21.92;;;19.73;;
10269;SDS011;70826;50.930;5.334;2024-01-11T13:30:41;22.83;;;20.50;;
10269;SDS011;70826;50.930;5.334;2024-01-11T13:33:14;22.55;;;20.40;;
10269;SDS011;70826;50.930;5.334;2024-01-11T13:35:46;23.65;;;21.45;;
10269;SDS011;70826;50.930;5.334;2024-01-11T13:38:12;25.20;;;22.90;;
10269;SDS011;70826;50.930;5.334;2024-01-11T13:40:40;25.75;;;23.42;;
10269;SDS011;70826;50.930;5.334;2024-01-11T13:43:08;29.52;;;27.00;;
10269;SDS011;70826;50.930;5.334;2024-01-11T13:45:39;31.88;;;29.17;;
10269;SDS011;70826;50.930;5.334;2024-01-11T13:48:09;33.50;;;30.70;;
10269;SDS011;70826;50.930;5.334;2024-01-11T13:50:35;37.05;;;34.05;;
10269;SDS011;70826;50.930;5.334;2024-01-11T13:53:03;38.20;;;35.45;;
10269;SDS011;70826;50.930;5.334;2024-01-11T13:55:31;37.72;;;34.85;;
10269;SDS011;70826;50.930;5.334;2024-01-11T13:58:05;39.00;;;36.10;;
10269;SDS011;70826;50.930;5.334;2024-01-11T14:00:33;39.92;;;37.13;;
10269;SDS011;70826;50.930;5.334;2024-01-11T14:03:01;39.47;;;36.60;;
10269;SDS011;70826;50.930;5.334;2024-01-11T14:05:30;38.83;;;36.03;;
10269;SDS011;70826;50.930;5.334;2024-01-11T14:07:55;40.20;;;37.15;;
10269;SDS011;70826;50.930;5.334;2024-01-11T14:10:27;40.75;;;37.80;;
10269;SDS011;70826;50.930;5.334;2024-01-11T14:12:52;39.38;;;36.40;;
10269;SDS011;70826;50.930;5.334;2024-01-11T14:15:18;41.08;;;37.97;;
10269;SDS011;70826;50.930;5.334;2024-01-11T14:17:44;39.72;;;36.83;;
10269;SDS011;70826;50.930;5.334;2024-01-11T14:20:13;38.97;;;36.15;;
10269;SDS011;70826;50.930;5.334;2024-01-11T14:22:41;40.60;;;37.65;;
10269;SDS011;70826;50.930;5.334;2024-01-11T14:25:10;38.50;;;35.67;;
10269;SDS011;70826;50.930;5.334;2024-01-11T14:27:40;39.45;;;36.47;;
10269;SDS011;70826;50.930;5.334;2024-01-11T14:30:06;39.78;;;36.92;;
10269;SDS011;70826;50.930;5.334;2024-01-11T14:32:34;38.42;;;35.72;;
10269;SDS011;70826;50.930;5.334;2024-01-11T14:35:06;39.05;;;36.25;;
10269;SDS011;70826;50.930;5.334;2024-01-11T14:37:35;37.35;;;34.78;;
10269;SDS011;70826;50.930;5.334;2024-01-11T14:40:09;38.08;;;35.40;;